Time;durP1;ratioP1;P1;durP2;ratioP2;P2;SDS_P1;SDS_P2;PMS_P1;PMS_P2;Temp;Humidity;BMP_temperature;BMP_pressure;BME280_temperature;BME280_humidity;BME280_pressure;Samples;Min_cycle;Max_cycle;Signal;HPM_P1;HPM_P2
2020/12/27 01:27:05;;;;;;;;;;;;;;;;;;;;;
2020/12/27 06:57:04;;;;;;;;;;;;;;;;;;;;;
2020/12/27 07:15:48;;;;;;;;;;;;;;;;;;;;;
2020/12/27 07:30:21;;;;;;;30.00;14.85;;;;;;;-1.60;100.00;100182.05;1820443;77;28270;-74
2020/12/27 07:45:00;;;;;;;;;;;;;;;;;;;;;
2020/12/27 07:48:22;;;;;;;32.70;17.87;;;;;;;-1.61;100.00;100191.76;1442770;92;21677;-76
2020/12/27 07:52:23;;;;;;;39.10;22.05;;;;;;;-1.58;100.00;100180.91;1435202;97;21638;-73
2020/12/27 08:22:42;;;;;;;41.48;24.32;;;;;;;-0.67;100.00;100199.00;1703719;80;21570;-75
2020/12/27 08:36:32;;;;;;;34.00;19.30;;;;;;;-0.40;100.00;100196.52;1742190;80;22123;-74
2020/12/27 08:53:51;;;;;;;29.05;17.55;;;;;;;1.29;100.00;100181.55;1738756;80;28334;-72
2020/12/27 09:14:43;;;;;;;;;;;;;;;;;;;;;
2020/12/27 09:17:19;;;;;;;41.95;26.42;;;;;;;2.39;100.00;100160.22;1847144;77;23796;-73
2020/12/27 09:20:03;;;;;;;;;;;;;;;;;;;;;
2020/12/27 09:22:49;;;;;;;25.10;15.95;;;;;;;2.53;100.00;100160.19;1774937;80;21924;-75
2020/12/27 09:25:33;;;;;;;38.83;22.20;;;;;;;2.60;100.00;100161.60;1777286;80;20922;-74
2020/12/27 09:28:23;;;;;;;25.17;15.80;;;;;;;2.98;100.00;100160.05;1775733;80;21180;-76
2020/12/27 09:31:10;;;;;;;23.57;14.75;;;;;;;3.13;95.41;100149.37;1781894;80;20997;-73
2020/12/27 09:37:52;;;;;;;32.65;16.12;;;;;;;3.52;94.61;100166.13;1817541;77;27939;-73
2020/12/27 09:40:38;;;;;;;28.10;16.30;;;;;;;3.55;91.17;100165.77;1687245;81;21105;-72
2020/12/27 09:43:53;;;;;;;27.45;16.65;;;;;;;3.12;90.40;100163.66;1815635;77;22404;-75
2020/12/27 09:47:04;;;;;;;26.42;15.80;;;;;;;3.02;93.11;100161.31;1851442;75;28437;-73
2020/12/27 09:50:14;;;;;;;22.85;14.13;;;;;;;2.97;94.38;100162.39;1824760;75;20978;-74
2020/12/27 09:53:30;;;;;;;;;;;;;;;;;;;;;
2020/12/27 09:56:08;;;;;;;25.52;14.60;;;;;;;2.33;94.02;100167.09;1816959;77;23994;-72
2020/12/27 09:58:59;;;;;;;;;;;;;;;;;;;;;
2020/12/27 10:02:06;;;;;;;20.53;14.03;;;;;;;2.27;91.61;100164.66;1790915;77;28010;-73
2020/12/27 10:05:10;;;;;;;;;;;;;;;;;;;;;
2020/12/27 10:07:53;;;;;;;13.75;9.78;;;;;;;1.39;97.40;100160.95;1841538;77;22782;-73
2020/12/27 10:10:26;;;;;;;21.12;11.88;;;;;;;1.13;96.06;100163.16;1817197;79;21877;-73
2020/12/27 10:13:10;;;;;;;25.27;13.93;;;;;;;0.99;96.74;100162.12;1808105;79;21577;-74
2020/12/27 10:15:52;;;;;;;28.20;14.38;;;;;;;0.90;99.89;100164.48;1815011;79;20960;-73
2020/12/27 10:18:29;;;;;;;20.32;11.22;;;;;;;0.80;100.00;100160.75;1814695;79;20952;-74
2020/12/27 10:21:14;;;;;;;18.87;11.57;;;;;;;0.78;100.00;100152.17;1841360;77;20916;-72
2020/12/27 10:23:52;;;;;;;18.27;12.33;;;;;;;0.71;100.00;100153.86;1816730;79;20968;-74
2020/12/27 10:26:21;;;;;;;19.82;12.45;;;;;;;0.66;100.00;100145.14;1817558;79;22459;-74
2020/12/27 10:28:51;;;;;;;22.35;13.00;;;;;;;0.68;100.00;100152.39;1817626;79;20885;-72
2020/12/27 10:31:27;;;;;;;30.35;15.95;;;;;;;0.71;100.00;100144.62;1817766;79;21483;-73
2020/12/27 10:33:54;;;;;;;24.70;14.25;;;;;;;0.69;100.00;100133.42;1817612;79;21652;-73
2020/12/27 10:36:28;;;;;;;23.57;14.03;;;;;;;0.70;100.00;100125.81;1817594;79;21106;-74
2020/12/27 10:38:59;;;;;;;23.10;10.82;;;;;;;0.76;100.00;100134.34;1818041;79;21413;-72
2020/12/27 10:41:31;;;;;;;13.18;7.40;;;;;;;0.78;96.59;100127.06;1817475;79;20991;-73
2020/12/27 10:44:00;;;;;;;11.75;7.47;;;;;;;0.81;91.67;100123.59;1719002;82;21024;-75
2020/12/27 10:46:32;;;;;;;10.03;5.97;;;;;;;0.80;86.11;100119.79;1750128;80;21078;-72
2020/12/27 10:49:00;;;;;;;9.73;6.72;;;;;;;0.71;85.37;100132.25;1750751;82;20916;-73
2020/12/27 10:51:36;;;;;;;9.93;6.95;;;;;;;0.67;86.94;100140.20;1781390;80;21148;-72
2020/12/27 10:54:06;;;;;;;13.13;7.67;;;;;;;0.67;88.48;100134.09;1750664;82;21047;-73
2020/12/27 10:56:38;;;;;;;13.98;8.95;;;;;;;0.63;88.11;100134.42;1748840;82;21213;-74
2020/12/27 10:59:07;;;;;;;11.20;7.60;;;;;;;0.60;89.27;100133.45;1781263;80;21164;-74
2020/12/27 11:01:42;;;;;;;11.50;6.37;;;;;;;0.62;89.72;100139.39;1750536;82;21011;-73
2020/12/27 11:04:11;;;;;;;8.28;5.90;;;;;;;0.62;86.68;100132.79;1750820;80;22133;-72
2020/12/27 11:06:39;;;;;;;;;;;;;;;0.59;86.62;100124.41;1752936;82;21099;-72
2020/12/27 11:09:09;;;;;;;;;;;;;;;0.59;87.14;100132.33;1753043;81;20158;-72
2020/12/27 11:11:39;;;;;;;10.00;7.08;;;;;;;0.63;88.74;100129.64;1781308;80;20513;-74
2020/12/27 11:14:08;;;;;;;14.85;8.78;;;;;;;0.64;87.72;100128.16;1776583;80;20975;-75
2020/12/27 11:16:38;;;;;;;12.07;7.90;;;;;;;0.61;86.89;100127.20;1776400;80;21544;-71
2020/12/27 16:48:27;;;;;;;;;;;;;;;;;;;;;
2020/12/27 17:17:03;;;;;;;21.45;14.05;;;;;;;-3.48;100.00;99949.24;1730869;82;21486;-75
2020/12/27 17:19:42;;;;;;;25.45;15.85;;;;;;;-3.51;100.00;99960.88;1739561;81;21184;-74
2020/12/27 17:22:35;;;;;;;25.30;14.90;;;;;;;-3.52;100.00;99950.55;1711631;82;23663;-73
2020/12/27 17:26:01;;;;;;;31.87;18.12;;;;;;;-3.47;100.00;99945.66;1798885;78;28482;-73
2020/12/27 17:28:41;;;;;;;21.40;13.53;;;;;;;-3.49;100.00;99944.48;1774859;79;21327;-73
2020/12/27 17:31:49;;;;;;;25.55;13.65;;;;;;;-3.52;100.00;99941.36;1678423;84;23357;-74
2020/12/27 17:35:04;;;;;;;21.62;13.85;;;;;;;-3.53;100.00;99939.70;1553318;90;22776;-73
2020/12/27 19:51:14;;;;;;;18.42;10.98;;;;;;;-3.15;100.00;99883.33;1781190;79;21156;-71
2020/12/27 19:53:46;;;;;;;24.02;11.45;;;;;;;-3.15;100.00;99897.77;1793974;79;21172;-70
2020/12/27 19:56:18;;;;;;;17.57;10.05;;;;;;;-3.15;100.00;99901.72;1776892;79;21476;-72
2020/12/27 19:58:49;;;;;;;17.67;10.45;;;;;;;-3.18;100.00;99899.41;1791182;79;21085;-71
2020/12/27 20:01:18;;;;;;;14.23;8.98;;;;;;;-3.19;100.00;99903.00;1788267;79;21180;-74
2020/12/27 20:06:36;;;;;;;17.17;10.35;;;;;;;-3.03;100.00;99915.41;1794715;79;21184;-71
2020/12/27 20:09:06;;;;;;;11.25;8.40;;;;;;;-3.01;100.00;99912.13;1796688;79;21241;-74
2020/12/27 20:11:36;;;;;;;14.85;9.83;;;;;;;-2.98;100.00;99906.55;1796841;79;20986;-73
2020/12/27 20:14:06;;;;;;;16.15;10.93;;;;;;;-2.98;100.00;99903.11;1796604;79;21596;-71
2020/12/27 20:16:36;;;;;;;17.52;10.82;;;;;;;-2.96;100.00;99902.44;1796769;78;21071;-73
2020/12/27 20:19:20;;;;;;;;;;;;;;;;;;;;;
2020/12/27 20:22:09;;;;;;;19.27;11.75;;;;;;;-2.79;100.00;99896.30;1841755;77;28222;-72
2020/12/27 20:31:41;;;;;;;19.92;11.28;;;;;;;-2.71;100.00;99910.77;1739015;81;21015;-75
2020/12/27 20:38:25;;;;;;;11.57;8.53;;;;;;;-2.75;100.00;99883.16;1745547;81;21022;-70
2020/12/27 20:40:55;;;;;;;16.70;9.48;;;;;;;-2.73;100.00;99893.52;1816825;78;21474;-71
2020/12/27 20:43:25;;;;;;;16.30;10.95;;;;;;;-2.71;100.00;99882.36;1751361;81;21210;-69
2020/12/27 20:46:02;;;;;;;18.12;11.75;;;;;;;-2.70;100.00;99880.87;1821560;78;21055;-71
2020/12/27 20:49:00;;;;;;;15.23;9.98;;;;;;;-2.64;100.00;99890.75;1770768;78;21283;-73
2020/12/27 20:52:22;;;;;;;16.00;9.83;;;;;;;-2.57;100.00;99865.13;1647104;86;21259;-74
2020/12/27 20:55:57;;;;;;;20.15;12.75;;;;;;;-2.48;100.00;99878.63;1671922;85;21540;-72
2020/12/27 21:07:29;;;;;;;14.18;9.38;;;;;;;-2.29;100.00;99861.24;1662306;83;21245;-75
2020/12/27 21:09:41;;;;;;;15.23;10.95;;;;;;;-2.27;100.00;99859.78;1663192;84;21141;-72
2020/12/27 21:12:28;;;;;;;14.93;10.25;;;;;;;-2.24;100.00;99862.89;1724277;82;21159;-71
2020/12/27 21:15:03;;;;;;;11.25;8.98;;;;;;;-2.19;100.00;99865.03;1713095;82;21361;-71
2020/12/27 21:17:31;;;;;;;14.40;9.93;;;;;;;-2.17;100.00;99857.80;1692849;83;22272;-72
2020/12/27 21:23:19;;;;;;;16.62;10.23;;;;;;;-2.11;100.00;99865.52;1846328;77;28211;-70
2020/12/27 21:26:00;;;;;;;16.80;10.38;;;;;;;-2.16;100.00;99868.64;1706454;83;21205;-69
2020/12/27 21:28:44;;;;;;;14.85;10.85;;;;;;;-2.15;100.00;99853.21;1649807;85;21398;-75
2020/12/27 21:31:16;;;;;;;12.55;9.83;;;;;;;-2.10;100.00;99863.24;1681138;85;20953;-71
2020/12/27 21:37:18;;;;;;;15.43;9.50;;;;;;;-2.06;100.00;99854.83;1836916;77;28317;-72
2020/12/27 21:39:59;;;;;;;25.90;14.15;;;;;;;-2.08;100.00;99853.35;1728685;82;21091;-73
2020/12/27 21:42:48;;;;;;;18.87;11.85;;;;;;;-2.07;100.00;99857.14;1767289;78;21002;-69
2020/12/27 21:45:20;;;;;;;14.60;8.48;;;;;;;-2.07;100.00;99858.96;1767529;79;20938;-72
2020/12/27 21:51:02;;;;;;;15.28;11.03;;;;;;;-2.00;100.00;99855.50;1840873;77;28191;-75
2020/12/27 21:53:53;;;;;;;13.30;9.20;;;;;;;-1.99;100.00;99849.74;1865017;76;28554;-73
2020/12/27 22:03:34;;;;;;;16.02;10.10;;;;;;;-2.04;100.00;99843.66;1622553;87;20256;-72
2020/12/27 22:17:09;;;;;;;13.03;10.05;;;;;;;-1.96;100.00;99841.52;1815917;77;28951;-74
2020/12/27 22:19:49;;;;;;;17.67;10.48;;;;;;;-1.97;100.00;99821.47;1753212;79;21485;-72
2020/12/27 22:22:19;;;;;;;18.07;12.03;;;;;;;-1.96;100.00;99823.94;1768681;79;21198;-75
2020/12/27 22:24:49;;;;;;;19.12;11.73;;;;;;;-1.95;100.00;99812.42;1762585;78;21078;-74
2020/12/27 22:27:23;;;;;;;23.32;12.95;;;;;;;-1.93;100.00;99810.13;1729926;80;21592;-71
2020/12/27 22:29:51;;;;;;;16.23;11.20;;;;;;;-1.95;100.00;99812.42;1701138;81;21794;-73
2020/12/27 22:32:19;;;;;;;14.98;10.43;;;;;;;-1.93;100.00;99802.23;1724689;81;21022;-72
2020/12/27 22:34:49;;;;;;;19.45;11.08;;;;;;;-1.93;100.00;99805.69;1774612;79;21205;-72
2020/12/27 22:37:20;;;;;;;19.02;10.05;;;;;;;-1.93;100.00;99795.66;1775243;78;21077;-73
2020/12/27 22:39:49;;;;;;;20.05;12.98;;;;;;;-1.93;100.00;99789.90;1774124;79;21070;-74
2020/12/27 22:42:21;;;;;;;;;;;;;;;-1.92;100.00;99793.34;1753668;80;21046;-73
2020/12/27 22:44:49;;;;;;;26.35;13.62;;;;;;;-1.91;100.00;99785.77;1759197;79;20227;-76
2020/12/27 22:47:17;;;;;;;22.07;12.25;;;;;;;-1.91;100.00;99791.88;1742772;81;21219;-75
2020/12/27 22:49:45;;;;;;;23.62;13.20;;;;;;;-1.92;100.00;99781.00;1747352;81;28308;-71
2020/12/27 22:52:15;;;;;;;24.00;12.55;;;;;;;-1.91;100.00;99777.41;1711171;82;21142;-73
2020/12/27 22:54:58;;;;;;;17.95;10.78;;;;;;;-1.85;100.00;99764.06;1851854;77;28560;-72
2020/12/27 22:57:27;;;;;;;19.15;12.47;;;;;;;-1.89;100.00;99770.64;1819828;78;21458;-70
2020/12/27 23:00:00;;;;;;;20.43;13.75;;;;;;;-1.91;100.00;99772.14;1819817;78;21207;-70
2020/12/27 23:02:28;;;;;;;20.80;12.82;;;;;;;-1.90;100.00;99743.52;1750018;82;21585;-69
2020/12/27 23:04:57;;;;;;;23.25;11.63;;;;;;;-1.87;100.00;99767.35;1819144;78;20943;-74
2020/12/27 23:07:26;;;;;;;;;;;;;;;-1.88;100.00;99757.33;1817483;78;21054;-73
2020/12/27 23:09:55;;;;;;;17.70;11.28;;;;;;;-1.88;100.00;99736.78;1819662;78;20117;-72
2020/12/27 23:12:25;;;;;;;20.70;12.60;;;;;;;-1.88;100.00;99742.05;1749727;82;21054;-70
2020/12/27 23:14:56;;;;;;;18.17;12.47;;;;;;;-1.88;100.00;99745.48;1815378;78;20932;-71
2020/12/27 23:17:26;;;;;;;23.18;14.03;;;;;;;-1.87;100.00;99735.78;1749964;82;20923;-71
2020/12/27 23:19:55;;;;;;;23.05;11.63;;;;;;;-1.87;100.00;99738.41;1819704;78;20877;-71
2020/12/27 23:22:23;;;;;;;19.85;12.73;;;;;;;-1.86;100.00;99740.04;1819381;78;21090;-72
2020/12/27 23:24:52;;;;;;;;;;;;;;;-1.86;100.00;99730.36;1752350;82;21442;-72
2020/12/27 23:27:21;;;;;;;16.67;11.08;;;;;;;-1.83;100.00;99731.83;1780025;80;20135;-71
2020/12/27 23:29:53;;;;;;;22.58;13.38;;;;;;;-1.83;100.00;99728.70;1819694;78;20916;-73
2020/12/27 23:32:21;;;;;;;20.72;13.08;;;;;;;-1.81;100.00;99729.86;1720863;82;21681;-73
2020/12/27 23:34:51;;;;;;;21.75;11.80;;;;;;;-1.82;100.00;99726.88;1819928;78;21066;-71
2020/12/27 23:37:19;;;;;;;17.02;11.00;;;;;;;-1.80;100.00;99727.03;1819757;78;21361;-74
2020/12/27 23:39:50;;;;;;;19.27;11.93;;;;;;;-1.77;100.00;99726.69;1749536;82;21046;-73
2020/12/27 23:42:20;;;;;;;22.85;11.90;;;;;;;-1.76;100.00;99727.03;1819302;78;21003;-74
2020/12/27 23:44:51;;;;;;;20.15;11.97;;;;;;;-1.74;100.00;99726.37;1819466;78;26487;-72
2020/12/27 23:47:19;;;;;;;15.98;9.33;;;;;;;-1.73;100.00;99703.50;1749521;82;21585;-72
2020/12/27 23:49:52;;;;;;;18.32;11.35;;;;;;;-1.69;100.00;99721.92;1819577;78;21185;-72
2020/12/27 23:52:25;;;;;;;17.87;11.38;;;;;;;-1.68;100.00;99701.68;1819694;78;20932;-74
2020/12/27 23:54:57;;;;;;;21.23;13.60;;;;;;;-1.65;100.00;99721.89;1819458;78;21030;-72
2020/12/27 23:57:26;;;;;;;20.90;11.22;;;;;;;-1.64;100.00;99705.59;1749692;82;21498;-74
2020/12/27 23:59:55;;;;;;;20.32;12.50;;;;;;;-1.62;100.00;99703.11;1819842;78;20907;-73
